Locke Mills, Pennsylvania
Current Conditions -  °F | °C
As of 8:53 PM on Thursday 20 Nov 2014 (Local Time) from KUNV Reporting Station
Broken Clouds Broken Clouds  
Wind Chill: -11°   Ceiling: 5000
Heat Index: -4°   Visibility: 10mi
Dew Point: -13°   Wind: 15mph
Humidity: 50%   Direction: 280°W
Pressure: 30.02"   Gusts: 21mph
Location:  40.7567°N, 77.488°W
Report Text: KUNV 210153Z 28013G18KT 10SM BKN050 M04/M13 A3002
Loading
Personal Weather Stations






























Interactive Weather Map New forecast layout! Learn more

10-Day Weather Forecast

Advertisements
Track Severe Weather on mobile